sensor_id;sensor_type;location;lat;lon;timestamp;P1;durP1;ratioP1;P2;durP2;ratioP2
462;SDS011;218;51.902;9.542;2022-12-13T00:00:23;28.98;;;20.50;;
462;SDS011;218;51.902;9.542;2022-12-13T00:02:49;32.30;;;21.95;;
462;SDS011;218;51.902;9.542;2022-12-13T00:05:17;30.50;;;20.30;;
462;SDS011;218;51.902;9.542;2022-12-13T00:07:43;32.30;;;20.80;;
462;SDS011;218;51.902;9.542;2022-12-13T00:10:11;32.65;;;21.15;;
462;SDS011;218;51.902;9.542;2022-12-13T00:12:39;28.75;;;21.15;;
462;SDS011;218;51.902;9.542;2022-12-13T00:15:06;30.70;;;21.73;;
462;SDS011;218;51.902;9.542;2022-12-13T00:17:34;32.38;;;21.50;;
462;SDS011;218;51.902;9.542;2022-12-13T00:20:01;34.30;;;20.63;;
462;SDS011;218;51.902;9.542;2022-12-13T00:22:28;30.98;;;21.80;;
462;SDS011;218;51.902;9.542;2022-12-13T00:24:55;34.38;;;21.33;;
462;SDS011;218;51.902;9.542;2022-12-13T00:27:22;32.47;;;21.00;;
462;SDS011;218;51.902;9.542;2022-12-13T00:29:50;32.53;;;21.15;;
462;SDS011;218;51.902;9.542;2022-12-13T00:32:17;41.15;;;24.20;;
462;SDS011;218;51.902;9.542;2022-12-13T00:34:44;34.65;;;22.05;;
462;SDS011;218;51.902;9.542;2022-12-13T00:37:11;38.13;;;22.85;;
462;SDS011;218;51.902;9.542;2022-12-13T00:39:38;33.22;;;20.27;;
462;SDS011;218;51.902;9.542;2022-12-13T00:42:05;31.73;;;20.92;;
462;SDS011;218;51.902;9.542;2022-12-13T00:44:32;38.45;;;20.45;;
462;SDS011;218;51.902;9.542;2022-12-13T00:47:00;30.83;;;20.30;;
462;SDS011;218;51.902;9.542;2022-12-13T00:49:27;34.45;;;20.27;;
462;SDS011;218;51.902;9.542;2022-12-13T00:51:54;32.00;;;19.60;;
462;SDS011;218;51.902;9.542;2022-12-13T00:54:21;37.03;;;20.40;;
462;SDS011;218;51.902;9.542;2022-12-13T00:56:48;37.65;;;22.35;;
462;SDS011;218;51.902;9.542;2022-12-13T00:59:16;36.78;;;23.98;;
462;SDS011;218;51.902;9.542;2022-12-13T01:01:43;33.17;;;19.67;;
462;SDS011;218;51.902;9.542;2022-12-13T01:04:14;34.10;;;20.65;;
462;SDS011;218;51.902;9.542;2022-12-13T01:06:41;34.95;;;23.10;;
462;SDS011;218;51.902;9.542;2022-12-13T01:09:14;30.83;;;17.75;;
462;SDS011;218;51.902;9.542;2022-12-13T01:11:42;29.45;;;18.58;;
462;SDS011;218;51.902;9.542;2022-12-13T01:14:09;31.77;;;19.55;;
462;SDS011;218;51.902;9.542;2022-12-13T01:16:37;32.83;;;19.13;;
462;SDS011;218;51.902;9.542;2022-12-13T01:19:04;31.35;;;20.42;;
462;SDS011;218;51.902;9.542;2022-12-13T01:21:35;29.10;;;19.13;;
462;SDS011;218;51.902;9.542;2022-12-13T01:24:02;32.08;;;18.92;;
462;SDS011;218;51.902;9.542;2022-12-13T01:26:31;33.80;;;18.33;;
462;SDS011;218;51.902;9.542;2022-12-13T01:28:58;33.95;;;19.70;;
462;SDS011;218;51.902;9.542;2022-12-13T01:31:25;31.38;;;17.73;;
462;SDS011;218;51.902;9.542;2022-12-13T01:33:52;33.25;;;18.85;;
462;SDS011;218;51.902;9.542;2022-12-13T01:36:20;29.65;;;18.13;;
462;SDS011;218;51.902;9.542;2022-12-13T01:38:48;39.47;;;19.25;;
462;SDS011;218;51.902;9.542;2022-12-13T01:41:16;34.00;;;19.92;;
462;SDS011;218;51.902;9.542;2022-12-13T01:43:49;31.45;;;20.17;;
462;SDS011;218;51.902;9.542;2022-12-13T01:46:19;32.55;;;19.00;;
462;SDS011;218;51.902;9.542;2022-12-13T01:48:48;33.08;;;17.63;;
462;SDS011;218;51.902;9.542;2022-12-13T01:51:19;35.53;;;17.42;;
462;SDS011;218;51.902;9.542;2022-12-13T01:53:51;34.78;;;19.20;;
462;SDS011;218;51.902;9.542;2022-12-13T01:56:21;26.27;;;17.15;;
462;SDS011;218;51.902;9.542;2022-12-13T01:58:51;31.42;;;19.25;;
462;SDS011;218;51.902;9.542;2022-12-13T02:01:20;34.38;;;19.88;;
462;SDS011;218;51.902;9.542;2022-12-13T02:03:48;36.45;;;20.35;;
462;SDS011;218;51.902;9.542;2022-12-13T02:06:15;39.53;;;21.42;;
462;SDS011;218;51.902;9.542;2022-12-13T02:08:44;35.20;;;20.20;;
462;SDS011;218;51.902;9.542;2022-12-13T02:11:13;38.50;;;21.90;;
462;SDS011;218;51.902;9.542;2022-12-13T02:13:41;37.80;;;20.80;;
462;SDS011;218;51.902;9.542;2022-12-13T02:16:10;35.00;;;18.77;;
462;SDS011;218;51.902;9.542;2022-12-13T02:18:48;34.25;;;20.60;;
462;SDS011;218;51.902;9.542;2022-12-13T02:21:28;40.58;;;18.90;;
462;SDS011;218;51.902;9.542;2022-12-13T02:27:10;34.30;;;18.50;;
462;SDS011;218;51.902;9.542;2022-12-13T02:32:56;34.90;;;20.73;;
462;SDS011;218;51.902;9.542;2022-12-13T02:35:36;38.85;;;21.80;;
462;SDS011;218;51.902;9.542;2022-12-13T02:38:09;35.30;;;20.70;;
462;SDS011;218;51.902;9.542;2022-12-13T02:40:40;34.75;;;19.08;;
462;SDS011;218;51.902;9.542;2022-12-13T02:43:12;42.30;;;19.75;;
462;SDS011;218;51.902;9.542;2022-12-13T02:45:45;30.58;;;18.77;;
462;SDS011;218;51.902;9.542;2022-12-13T02:48:13;40.00;;;20.85;;
462;SDS011;218;51.902;9.542;2022-12-13T02:50:44;34.75;;;19.30;;
462;SDS011;218;51.902;9.542;2022-12-13T02:53:13;38.95;;;21.10;;
462;SDS011;218;51.902;9.542;2022-12-13T02:55:41;40.70;;;22.00;;
462;SDS011;218;51.902;9.542;2022-12-13T02:58:10;38.80;;;21.70;;
462;SDS011;218;51.902;9.542;2022-12-13T03:00:40;42.75;;;19.50;;
462;SDS011;218;51.902;9.542;2022-12-13T03:03:20;37.20;;;22.27;;
462;SDS011;218;51.902;9.542;2022-12-13T03:06:01;37.92;;;22.73;;
462;SDS011;218;51.902;9.542;2022-12-13T03:08:57;40.63;;;21.92;;
462;SDS011;218;51.902;9.542;2022-12-13T03:11:36;34.00;;;18.90;;
462;SDS011;218;51.902;9.542;2022-12-13T03:14:32;43.90;;;21.60;;
462;SDS011;218;51.902;9.542;2022-12-13T03:17:04;34.95;;;19.60;;
462;SDS011;218;51.902;9.542;2022-12-13T03:19:33;34.13;;;20.63;;
462;SDS011;218;51.902;9.542;2022-12-13T03:22:00;34.97;;;22.17;;
462;SDS011;218;51.902;9.542;2022-12-13T03:24:31;42.40;;;22.75;;
462;SDS011;218;51.902;9.542;2022-12-13T03:26:58;40.35;;;21.83;;
462;SDS011;218;51.902;9.542;2022-12-13T03:29:25;39.78;;;20.38;;
462;SDS011;218;51.902;9.542;2022-12-13T03:31:52;37.03;;;20.05;;
462;SDS011;218;51.902;9.542;2022-12-13T03:34:20;42.78;;;22.90;;
462;SDS011;218;51.902;9.542;2022-12-13T03:36:47;37.83;;;20.13;;
462;SDS011;218;51.902;9.542;2022-12-13T03:39:14;38.33;;;20.55;;
462;SDS011;218;51.902;9.542;2022-12-13T03:41:41;36.35;;;19.80;;
462;SDS011;218;51.902;9.542;2022-12-13T03:44:08;39.55;;;23.70;;
462;SDS011;218;51.902;9.542;2022-12-13T03:46:35;36.30;;;21.67;;
462;SDS011;218;51.902;9.542;2022-12-13T03:49:02;47.35;;;23.42;;
462;SDS011;218;51.902;9.542;2022-12-13T03:51:30;38.83;;;22.42;;
462;SDS011;218;51.902;9.542;2022-12-13T03:53:57;44.92;;;24.70;;
462;SDS011;218;51.902;9.542;2022-12-13T03:56:24;40.85;;;21.95;;
462;SDS011;218;51.902;9.542;2022-12-13T03:58:51;40.60;;;22.00;;
462;SDS011;218;51.902;9.542;2022-12-13T04:01:18;39.08;;;21.52;;
462;SDS011;218;51.902;9.542;2022-12-13T04:03:46;45.95;;;24.10;;
462;SDS011;218;51.902;9.542;2022-12-13T04:06:13;37.80;;;20.90;;
462;SDS011;218;51.902;9.542;2022-12-13T04:08:42;45.83;;;21.48;;
462;SDS011;218;51.902;9.542;2022-12-13T04:11:08;44.58;;;23.98;;
462;SDS011;218;51.902;9.542;2022-12-13T04:13:53;43.60;;;21.60;;
462;SDS011;218;51.902;9.542;2022-12-13T04:16:20;37.17;;;19.90;;
462;SDS011;218;51.902;9.542;2022-12-13T04:18:48;39.83;;;22.08;;
462;SDS011;218;51.902;9.542;2022-12-13T04:21:15;52.33;;;25.02;;
462;SDS011;218;51.902;9.542;2022-12-13T04:23:43;43.90;;;21.88;;
462;SDS011;218;51.902;9.542;2022-12-13T04:26:10;41.92;;;22.58;;
462;SDS011;218;51.902;9.542;2022-12-13T04:28:37;37.40;;;21.80;;
462;SDS011;218;51.902;9.542;2022-12-13T04:31:04;39.85;;;22.08;;
462;SDS011;218;51.902;9.542;2022-12-13T04:33:31;41.33;;;21.27;;
462;SDS011;218;51.902;9.542;2022-12-13T04:35:58;40.25;;;23.25;;
462;SDS011;218;51.902;9.542;2022-12-13T04:38:25;39.15;;;22.60;;
462;SDS011;218;51.902;9.542;2022-12-13T04:40:54;42.67;;;24.05;;
462;SDS011;218;51.902;9.542;2022-12-13T04:43:30;43.78;;;24.15;;
462;SDS011;218;51.902;9.542;2022-12-13T04:45:56;46.28;;;25.08;;
462;SDS011;218;51.902;9.542;2022-12-13T04:48:23;45.10;;;25.25;;
462;SDS011;218;51.902;9.542;2022-12-13T04:50:51;39.22;;;23.45;;
462;SDS011;218;51.902;9.542;2022-12-13T04:53:18;42.05;;;24.25;;
462;SDS011;218;51.902;9.542;2022-12-13T04:55:45;39.15;;;24.60;;
462;SDS011;218;51.902;9.542;2022-12-13T04:58:13;39.35;;;23.35;;
462;SDS011;218;51.902;9.542;2022-12-13T05:00:40;42.15;;;24.88;;
462;SDS011;218;51.902;9.542;2022-12-13T05:03:07;40.30;;;24.60;;
462;SDS011;218;51.902;9.542;2022-12-13T05:05:33;39.28;;;22.50;;
462;SDS011;218;51.902;9.542;2022-12-13T05:08:04;35.95;;;21.02;;
462;SDS011;218;51.902;9.542;2022-12-13T05:10:31;35.28;;;22.27;;
462;SDS011;218;51.902;9.542;2022-12-13T05:12:59;35.47;;;21.05;;
462;SDS011;218;51.902;9.542;2022-12-13T05:15:28;39.97;;;22.25;;
462;SDS011;218;51.902;9.542;2022-12-13T05:17:58;41.22;;;21.65;;
462;SDS011;218;51.902;9.542;2022-12-13T05:20:26;40.78;;;24.25;;
462;SDS011;218;51.902;9.542;2022-12-13T05:22:54;38.25;;;21.90;;
462;SDS011;218;51.902;9.542;2022-12-13T05:25:21;45.17;;;23.88;;
462;SDS011;218;51.902;9.542;2022-12-13T05:27:48;38.72;;;22.27;;
462;SDS011;218;51.902;9.542;2022-12-13T05:30:15;46.95;;;22.88;;
462;SDS011;218;51.902;9.542;2022-12-13T05:32:44;40.65;;;21.83;;
462;SDS011;218;51.902;9.542;2022-12-13T05:35:11;47.67;;;23.48;;
462;SDS011;218;51.902;9.542;2022-12-13T05:37:38;42.40;;;24.35;;
462;SDS011;218;51.902;9.542;2022-12-13T05:40:06;42.97;;;24.92;;
462;SDS011;218;51.902;9.542;2022-12-13T05:42:35;45.03;;;24.33;;
462;SDS011;218;51.902;9.542;2022-12-13T05:45:03;48.67;;;25.88;;
462;SDS011;218;51.902;9.542;2022-12-13T05:47:31;36.40;;;21.42;;
462;SDS011;218;51.902;9.542;2022-12-13T05:50:00;40.08;;;21.77;;
462;SDS011;218;51.902;9.542;2022-12-13T05:52:26;41.17;;;22.80;;
462;SDS011;218;51.902;9.542;2022-12-13T05:54:53;34.78;;;21.00;;
462;SDS011;218;51.902;9.542;2022-12-13T05:57:21;40.28;;;21.42;;
462;SDS011;218;51.902;9.542;2022-12-13T05:59:48;45.85;;;23.48;;
462;SDS011;218;51.902;9.542;2022-12-13T06:02:15;40.35;;;20.13;;
462;SDS011;218;51.902;9.542;2022-12-13T06:04:42;40.10;;;22.77;;
462;SDS011;218;51.902;9.542;2022-12-13T06:07:11;36.03;;;22.25;;
462;SDS011;218;51.902;9.542;2022-12-13T06:09:39;33.60;;;20.50;;
462;SDS011;218;51.902;9.542;2022-12-13T06:12:06;41.88;;;22.98;;
462;SDS011;218;51.902;9.542;2022-12-13T06:14:35;37.65;;;21.20;;
462;SDS011;218;51.902;9.542;2022-12-13T06:17:02;42.85;;;24.02;;
462;SDS011;218;51.902;9.542;2022-12-13T06:19:29;39.13;;;22.38;;
462;SDS011;218;51.902;9.542;2022-12-13T06:21:56;43.05;;;23.65;;
462;SDS011;218;51.902;9.542;2022-12-13T06:24:24;37.50;;;20.42;;
462;SDS011;218;51.902;9.542;2022-12-13T06:26:52;39.40;;;22.30;;
462;SDS011;218;51.902;9.542;2022-12-13T06:29:20;31.95;;;20.23;;
462;SDS011;218;51.902;9.542;2022-12-13T06:31:50;37.08;;;21.95;;
462;SDS011;218;51.902;9.542;2022-12-13T06:34:20;30.27;;;20.02;;
462;SDS011;218;51.902;9.542;2022-12-13T06:36:47;36.92;;;20.08;;
462;SDS011;218;51.902;9.542;2022-12-13T06:39:14;39.65;;;22.35;;
462;SDS011;218;51.902;9.542;2022-12-13T06:41:43;39.58;;;24.00;;
462;SDS011;218;51.902;9.542;2022-12-13T06:44:10;41.38;;;21.92;;
462;SDS011;218;51.902;9.542;2022-12-13T06:46:37;37.50;;;22.48;;
462;SDS011;218;51.902;9.542;2022-12-13T06:49:04;44.55;;;23.70;;
462;SDS011;218;51.902;9.542;2022-12-13T06:51:31;36.55;;;22.60;;
462;SDS011;218;51.902;9.542;2022-12-13T06:53:58;47.05;;;26.88;;
462;SDS011;218;51.902;9.542;2022-12-13T06:56:26;49.65;;;24.83;;
462;SDS011;218;51.902;9.542;2022-12-13T06:58:55;45.67;;;24.50;;
462;SDS011;218;51.902;9.542;2022-12-13T07:01:22;44.60;;;24.10;;
462;SDS011;218;51.902;9.542;2022-12-13T07:03:49;48.70;;;24.40;;
462;SDS011;218;51.902;9.542;2022-12-13T07:06:16;44.30;;;23.83;;
462;SDS011;218;51.902;9.542;2022-12-13T07:08:46;33.93;;;21.87;;
462;SDS011;218;51.902;9.542;2022-12-13T07:11:15;46.60;;;24.92;;
462;SDS011;218;51.902;9.542;2022-12-13T07:13:43;41.33;;;21.77;;
462;SDS011;218;51.902;9.542;2022-12-13T07:16:12;37.53;;;23.60;;
462;SDS011;218;51.902;9.542;2022-12-13T07:18:39;41.20;;;24.63;;
462;SDS011;218;51.902;9.542;2022-12-13T07:21:06;40.13;;;22.17;;
462;SDS011;218;51.902;9.542;2022-12-13T07:23:35;40.45;;;22.63;;
462;SDS011;218;51.902;9.542;2022-12-13T07:26:02;37.67;;;21.00;;
462;SDS011;218;51.902;9.542;2022-12-13T07:28:31;48.08;;;24.70;;
462;SDS011;218;51.902;9.542;2022-12-13T07:30:58;38.03;;;22.95;;
462;SDS011;218;51.902;9.542;2022-12-13T07:33:27;38.03;;;23.58;;
462;SDS011;218;51.902;9.542;2022-12-13T07:35:58;45.63;;;24.83;;
462;SDS011;218;51.902;9.542;2022-12-13T07:38:26;40.30;;;22.52;;
462;SDS011;218;51.902;9.542;2022-12-13T07:40:54;42.65;;;26.10;;
462;SDS011;218;51.902;9.542;2022-12-13T07:43:22;41.83;;;22.70;;
462;SDS011;218;51.902;9.542;2022-12-13T07:45:49;37.92;;;22.30;;
462;SDS011;218;51.902;9.542;2022-12-13T07:48:16;48.42;;;23.27;;
462;SDS011;218;51.902;9.542;2022-12-13T07:50:44;39.20;;;26.63;;
462;SDS011;218;51.902;9.542;2022-12-13T07:53:11;44.88;;;25.35;;
462;SDS011;218;51.902;9.542;2022-12-13T07:55:38;44.67;;;26.35;;
462;SDS011;218;51.902;9.542;2022-12-13T07:58:06;41.40;;;22.83;;
462;SDS011;218;51.902;9.542;2022-12-13T08:00:34;44.05;;;26.00;;
462;SDS011;218;51.902;9.542;2022-12-13T08:03:02;45.42;;;23.75;;
462;SDS011;218;51.902;9.542;2022-12-13T08:05:29;37.90;;;23.85;;
462;SDS011;218;51.902;9.542;2022-12-13T08:07:58;38.55;;;23.58;;
462;SDS011;218;51.902;9.542;2022-12-13T08:10:25;39.92;;;21.75;;
462;SDS011;218;51.902;9.542;2022-12-13T08:12:52;36.92;;;20.55;;
462;SDS011;218;51.902;9.542;2022-12-13T08:15:19;37.45;;;20.80;;
462;SDS011;218;51.902;9.542;2022-12-13T08:17:46;39.47;;;21.67;;
462;SDS011;218;51.902;9.542;2022-12-13T08:20:13;42.53;;;22.95;;
462;SDS011;218;51.902;9.542;2022-12-13T08:22:41;39.65;;;20.48;;
462;SDS011;218;51.902;9.542;2022-12-13T08:25:09;38.35;;;19.10;;
462;SDS011;218;51.902;9.542;2022-12-13T08:27:36;43.60;;;21.80;;
462;SDS011;218;51.902;9.542;2022-12-13T08:30:04;42.90;;;22.92;;
462;SDS011;218;51.902;9.542;2022-12-13T08:32:31;35.20;;;25.20;;
462;SDS011;218;51.902;9.542;2022-12-13T08:34:58;37.70;;;22.83;;
462;SDS011;218;51.902;9.542;2022-12-13T08:37:25;36.38;;;21.27;;
462;SDS011;218;51.902;9.542;2022-12-13T08:39:58;38.55;;;21.02;;
462;SDS011;218;51.902;9.542;2022-12-13T08:42:26;38.97;;;20.27;;
462;SDS011;218;51.902;9.542;2022-12-13T08:44:53;44.08;;;19.92;;
462;SDS011;218;51.902;9.542;2022-12-13T08:47:20;42.90;;;21.25;;
462;SDS011;218;51.902;9.542;2022-12-13T08:49:49;35.35;;;18.90;;
462;SDS011;218;51.902;9.542;2022-12-13T08:52:15;40.42;;;22.40;;
462;SDS011;218;51.902;9.542;2022-12-13T08:54:43;37.72;;;19.00;;
462;SDS011;218;51.902;9.542;2022-12-13T08:57:10;41.70;;;20.70;;
462;SDS011;218;51.902;9.542;2022-12-13T08:59:38;38.22;;;20.42;;
462;SDS011;218;51.902;9.542;2022-12-13T09:02:05;40.45;;;21.15;;
462;SDS011;218;51.902;9.542;2022-12-13T09:04:34;39.00;;;19.60;;
462;SDS011;218;51.902;9.542;2022-12-13T09:07:01;34.95;;;19.75;;
462;SDS011;218;51.902;9.542;2022-12-13T09:09:28;39.47;;;20.65;;
462;SDS011;218;51.902;9.542;2022-12-13T09:11:55;44.97;;;21.00;;
462;SDS011;218;51.902;9.542;2022-12-13T09:14:22;30.90;;;20.02;;
462;SDS011;218;51.902;9.542;2022-12-13T09:16:51;40.58;;;21.88;;
462;SDS011;218;51.902;9.542;2022-12-13T09:19:18;39.45;;;20.25;;
462;SDS011;218;51.902;9.542;2022-12-13T09:21:45;34.35;;;18.90;;
462;SDS011;218;51.902;9.542;2022-12-13T09:24:11;36.05;;;20.17;;
462;SDS011;218;51.902;9.542;2022-12-13T09:26:39;33.95;;;19.08;;
462;SDS011;218;51.902;9.542;2022-12-13T09:29:06;43.70;;;21.95;;
462;SDS011;218;51.902;9.542;2022-12-13T09:31:33;32.70;;;20.30;;
462;SDS011;218;51.902;9.542;2022-12-13T09:34:06;31.63;;;20.27;;
462;SDS011;218;51.902;9.542;2022-12-13T09:36:33;33.78;;;21.40;;
462;SDS011;218;51.902;9.542;2022-12-13T09:39:00;32.88;;;18.75;;
462;SDS011;218;51.902;9.542;2022-12-13T09:41:27;37.50;;;22.85;;
462;SDS011;218;51.902;9.542;2022-12-13T09:43:59;34.28;;;20.00;;
462;SDS011;218;51.902;9.542;2022-12-13T09:46:30;41.78;;;21.55;;
462;SDS011;218;51.902;9.542;2022-12-13T09:48:59;34.65;;;20.90;;
462;SDS011;218;51.902;9.542;2022-12-13T09:51:31;39.88;;;23.10;;
462;SDS011;218;51.902;9.542;2022-12-13T09:53:58;38.13;;;20.42;;
462;SDS011;218;51.902;9.542;2022-12-13T09:56:26;36.17;;;22.27;;
462;SDS011;218;51.902;9.542;2022-12-13T09:58:54;41.35;;;20.73;;
462;SDS011;218;51.902;9.542;2022-12-13T10:01:21;40.38;;;21.45;;
462;SDS011;218;51.902;9.542;2022-12-13T10:03:50;38.90;;;22.83;;
462;SDS011;218;51.902;9.542;2022-12-13T10:06:20;43.28;;;23.70;;
462;SDS011;218;51.902;9.542;2022-12-13T10:08:50;37.88;;;20.80;;
462;SDS011;218;51.902;9.542;2022-12-13T10:11:19;36.70;;;21.88;;
462;SDS011;218;51.902;9.542;2022-12-13T10:13:48;38.10;;;22.95;;
462;SDS011;218;51.902;9.542;2022-12-13T10:16:22;38.45;;;21.90;;
462;SDS011;218;51.902;9.542;2022-12-13T10:18:53;38.53;;;23.38;;
462;SDS011;218;51.902;9.542;2022-12-13T10:21:21;37.15;;;21.20;;
462;SDS011;218;51.902;9.542;2022-12-13T10:23:54;33.78;;;21.77;;
462;SDS011;218;51.902;9.542;2022-12-13T10:26:21;37.85;;;23.48;;
462;SDS011;218;51.902;9.542;2022-12-13T10:28:48;38.10;;;20.98;;
462;SDS011;218;51.902;9.542;2022-12-13T10:31:16;46.10;;;24.90;;
462;SDS011;218;51.902;9.542;2022-12-13T10:33:49;38.97;;;22.60;;
462;SDS011;218;51.902;9.542;2022-12-13T10:36:29;39.30;;;24.55;;
462;SDS011;218;51.902;9.542;2022-12-13T10:38:59;46.80;;;23.80;;
462;SDS011;218;51.902;9.542;2022-12-13T10:41:28;34.50;;;21.98;;
462;SDS011;218;51.902;9.542;2022-12-13T10:46:51;44.88;;;22.63;;
462;SDS011;218;51.902;9.542;2022-12-13T10:49:29;40.47;;;22.15;;
462;SDS011;218;51.902;9.542;2022-12-13T10:52:02;42.33;;;23.25;;
462;SDS011;218;51.902;9.542;2022-12-13T10:54:32;33.03;;;21.50;;
462;SDS011;218;51.902;9.542;2022-12-13T10:57:01;35.88;;;21.15;;
462;SDS011;218;51.902;9.542;2022-12-13T10:59:30;33.78;;;22.65;;
462;SDS011;218;51.902;9.542;2022-12-13T11:01:59;42.42;;;22.85;;
462;SDS011;218;51.902;9.542;2022-12-13T11:04:28;38.58;;;21.33;;
462;SDS011;218;51.902;9.542;2022-12-13T11:06:57;37.58;;;23.92;;
462;SDS011;218;51.902;9.542;2022-12-13T11:09:26;43.42;;;24.00;;
462;SDS011;218;51.902;9.542;2022-12-13T11:11:56;44.53;;;23.13;;
462;SDS011;218;51.902;9.542;2022-12-13T11:14:31;37.67;;;21.80;;
462;SDS011;218;51.902;9.542;2022-12-13T11:17:04;32.80;;;21.73;;
462;SDS011;218;51.902;9.542;2022-12-13T11:19:35;36.97;;;20.95;;
462;SDS011;218;51.902;9.542;2022-12-13T11:22:05;39.50;;;21.10;;
462;SDS011;218;51.902;9.542;2022-12-13T11:24:35;40.58;;;24.13;;
462;SDS011;218;51.902;9.542;2022-12-13T11:27:09;37.17;;;22.13;;
462;SDS011;218;51.902;9.542;2022-12-13T11:29:50;40.20;;;21.45;;
462;SDS011;218;51.902;9.542;2022-12-13T11:32:33;40.17;;;22.95;;
462;SDS011;218;51.902;9.542;2022-12-13T11:35:13;36.42;;;21.73;;
462;SDS011;218;51.902;9.542;2022-12-13T11:37:47;42.03;;;24.15;;
462;SDS011;218;51.902;9.542;2022-12-13T11:40:23;44.60;;;24.20;;
462;SDS011;218;51.902;9.542;2022-12-13T11:42:56;32.13;;;21.95;;
462;SDS011;218;51.902;9.542;2022-12-13T11:45:28;51.10;;;28.70;;
462;SDS011;218;51.902;9.542;2022-12-13T11:48:02;46.47;;;28.58;;
462;SDS011;218;51.902;9.542;2022-12-13T11:50:36;51.35;;;28.35;;
462;SDS011;218;51.902;9.542;2022-12-13T11:53:15;44.15;;;26.30;;
462;SDS011;218;51.902;9.542;2022-12-13T11:55:47;38.47;;;24.63;;
462;SDS011;218;51.902;9.542;2022-12-13T11:58:21;48.83;;;28.10;;
462;SDS011;218;51.902;9.542;2022-12-13T12:00:56;45.88;;;27.85;;
462;SDS011;218;51.902;9.542;2022-12-13T12:03:30;39.15;;;24.60;;
462;SDS011;218;51.902;9.542;2022-12-13T12:06:03;41.65;;;24.52;;
462;SDS011;218;51.902;9.542;2022-12-13T12:08:38;36.65;;;22.65;;
462;SDS011;218;51.902;9.542;2022-12-13T12:11:11;45.42;;;28.23;;
462;SDS011;218;51.902;9.542;2022-12-13T12:13:46;37.15;;;22.10;;
462;SDS011;218;51.902;9.542;2022-12-13T12:16:19;42.72;;;22.50;;
462;SDS011;218;51.902;9.542;2022-12-13T12:18:55;42.35;;;24.58;;
462;SDS011;218;51.902;9.542;2022-12-13T12:21:25;46.35;;;24.88;;
462;SDS011;218;51.902;9.542;2022-12-13T12:24:01;35.67;;;23.73;;
462;SDS011;218;51.902;9.542;2022-12-13T12:26:39;37.15;;;22.77;;
462;SDS011;218;51.902;9.542;2022-12-13T12:29:27;44.70;;;24.52;;
462;SDS011;218;51.902;9.542;2022-12-13T12:32:12;45.22;;;24.27;;
462;SDS011;218;51.902;9.542;2022-12-13T12:34:46;40.28;;;23.58;;
462;SDS011;218;51.902;9.542;2022-12-13T12:37:23;39.70;;;25.30;;
462;SDS011;218;51.902;9.542;2022-12-13T12:43:00;37.65;;;22.48;;
462;SDS011;218;51.902;9.542;2022-12-13T12:45:36;36.88;;;24.13;;
462;SDS011;218;51.902;9.542;2022-12-13T12:48:17;41.83;;;23.58;;
462;SDS011;218;51.902;9.542;2022-12-13T12:50:57;41.95;;;23.63;;
462;SDS011;218;51.902;9.542;2022-12-13T12:53:36;46.30;;;24.83;;
462;SDS011;218;51.902;9.542;2022-12-13T12:56:20;39.60;;;23.77;;
462;SDS011;218;51.902;9.542;2022-12-13T12:58:59;36.83;;;22.83;;
462;SDS011;218;51.902;9.542;2022-12-13T13:01:40;43.70;;;24.17;;
462;SDS011;218;51.902;9.542;2022-12-13T13:04:17;38.35;;;24.27;;
462;SDS011;218;51.902;9.542;2022-12-13T13:06:48;44.33;;;25.35;;
462;SDS011;218;51.902;9.542;2022-12-13T13:09:19;32.92;;;21.80;;
462;SDS011;218;51.902;9.542;2022-12-13T13:11:46;42.15;;;22.90;;
462;SDS011;218;51.902;9.542;2022-12-13T13:14:27;41.10;;;24.02;;
462;SDS011;218;51.902;9.542;2022-12-13T13:16:58;39.75;;;22.75;;
462;SDS011;218;51.902;9.542;2022-12-13T13:19:44;43.63;;;24.48;;
462;SDS011;218;51.902;9.542;2022-12-13T13:22:28;37.38;;;23.30;;
462;SDS011;218;51.902;9.542;2022-12-13T13:24:57;41.17;;;22.52;;
462;SDS011;218;51.902;9.542;2022-12-13T13:27:39;34.05;;;22.40;;
462;SDS011;218;51.902;9.542;2022-12-13T13:30:14;37.28;;;22.42;;
462;SDS011;218;51.902;9.542;2022-12-13T13:32:43;38.67;;;23.45;;
462;SDS011;218;51.902;9.542;2022-12-13T13:44:32;46.25;;;24.38;;
462;SDS011;218;51.902;9.542;2022-12-13T13:47:39;36.05;;;23.73;;
462;SDS011;218;51.902;9.542;2022-12-13T13:50:22;39.58;;;24.48;;
462;SDS011;218;51.902;9.542;2022-12-13T13:56:33;42.00;;;23.65;;
462;SDS011;218;51.902;9.542;2022-12-13T14:05:43;36.08;;;23.42;;
462;SDS011;218;51.902;9.542;2022-12-13T14:08:33;43.05;;;25.08;;
462;SDS011;218;51.902;9.542;2022-12-13T14:14:25;39.60;;;28.55;;
462;SDS011;218;51.902;9.542;2022-12-13T14:17:39;43.35;;;27.80;;
462;SDS011;218;51.902;9.542;2022-12-13T14:20:44;40.28;;;27.35;;
462;SDS011;218;51.902;9.542;2022-12-13T14:23:20;41.33;;;29.63;;
462;SDS011;218;51.902;9.542;2022-12-13T14:26:12;48.53;;;28.70;;
462;SDS011;218;51.902;9.542;2022-12-13T14:28:54;41.08;;;26.65;;
462;SDS011;218;51.902;9.542;2022-12-13T14:31:22;43.17;;;27.30;;
462;SDS011;218;51.902;9.542;2022-12-13T14:33:52;37.47;;;25.48;;
462;SDS011;218;51.902;9.542;2022-12-13T14:36:26;37.28;;;23.20;;
462;SDS011;218;51.902;9.542;2022-12-13T14:38:59;40.38;;;26.00;;
462;SDS011;218;51.902;9.542;2022-12-13T14:41:27;32.97;;;23.42;;
462;SDS011;218;51.902;9.542;2022-12-13T14:43:54;35.83;;;23.55;;
462;SDS011;218;51.902;9.542;2022-12-13T14:46:21;30.98;;;21.00;;
462;SDS011;218;51.902;9.542;2022-12-13T14:48:49;36.65;;;22.27;;
462;SDS011;218;51.902;9.542;2022-12-13T14:51:24;33.33;;;22.63;;
462;SDS011;218;51.902;9.542;2022-12-13T14:53:59;28.95;;;19.70;;
462;SDS011;218;51.902;9.542;2022-12-13T14:56:29;29.85;;;20.02;;
462;SDS011;218;51.902;9.542;2022-12-13T14:58:57;34.65;;;21.50;;
462;SDS011;218;51.902;9.542;2022-12-13T15:01:26;32.17;;;20.50;;
462;SDS011;218;51.902;9.542;2022-12-13T15:06:46;34.38;;;20.27;;
462;SDS011;218;51.902;9.542;2022-12-13T15:09:15;29.30;;;20.10;;
462;SDS011;218;51.902;9.542;2022-12-13T15:11:43;33.17;;;19.75;;
462;SDS011;218;51.902;9.542;2022-12-13T15:14:12;35.30;;;23.30;;
462;SDS011;218;51.902;9.542;2022-12-13T15:16:45;30.58;;;21.10;;
462;SDS011;218;51.902;9.542;2022-12-13T15:19:15;35.80;;;22.48;;
462;SDS011;218;51.902;9.542;2022-12-13T15:21:53;34.55;;;21.50;;
462;SDS011;218;51.902;9.542;2022-12-13T15:24:22;36.10;;;22.10;;
462;SDS011;218;51.902;9.542;2022-12-13T15:26:52;39.17;;;25.17;;
462;SDS011;218;51.902;9.542;2022-12-13T15:29:21;35.75;;;24.05;;
462;SDS011;218;51.902;9.542;2022-12-13T15:31:49;43.85;;;27.25;;
462;SDS011;218;51.902;9.542;2022-12-13T15:34:20;40.78;;;25.38;;
462;SDS011;218;51.902;9.542;2022-12-13T15:36:48;42.38;;;24.90;;
462;SDS011;218;51.902;9.542;2022-12-13T15:39:17;34.17;;;23.98;;
462;SDS011;218;51.902;9.542;2022-12-13T15:41:44;37.80;;;26.08;;
462;SDS011;218;51.902;9.542;2022-12-13T15:44:15;38.67;;;26.02;;
462;SDS011;218;51.902;9.542;2022-12-13T15:46:45;40.50;;;25.38;;
462;SDS011;218;51.902;9.542;2022-12-13T15:49:19;53.22;;;28.38;;
462;SDS011;218;51.902;9.542;2022-12-13T15:51:53;45.83;;;29.45;;
462;SDS011;218;51.902;9.542;2022-12-13T15:54:27;44.42;;;25.98;;
462;SDS011;218;51.902;9.542;2022-12-13T15:56:59;45.35;;;26.20;;
462;SDS011;218;51.902;9.542;2022-12-13T15:59:29;39.58;;;25.05;;
462;SDS011;218;51.902;9.542;2022-12-13T16:01:57;43.90;;;25.98;;
462;SDS011;218;51.902;9.542;2022-12-13T16:04:26;39.63;;;23.58;;
462;SDS011;218;51.902;9.542;2022-12-13T16:06:55;43.10;;;23.73;;
462;SDS011;218;51.902;9.542;2022-12-13T16:09:23;40.35;;;25.50;;
462;SDS011;218;51.902;9.542;2022-12-13T16:11:54;43.97;;;22.85;;